Time;durP1;ratioP1;P1;durP2;ratioP2;P2;SDS_P1;SDS_P2;PMS_P1;PMS_P2;Temp;Humidity;BMP_temperature;BMP_pressure;BME280_temperature;BME280_humidity;BME280_pressure;Samples;Min_cycle;Max_cycle;Signal;HPM_P1;HPM_P2
2022/10/13 00:02:02;;;;;;;8.53;5.50;;;;;;;-145.23;100.00;58621.06;5015344;28;20236;-52
2022/10/13 00:04:31;;;;;;;9.57;5.57;;;;;;;-145.23;100.00;58621.06;5003812;28;20233;-52
2022/10/13 00:06:57;;;;;;;8.30;5.63;;;;;;;-145.23;100.00;58621.06;5013479;28;20291;-52
2022/10/13 00:09:24;;;;;;;15.47;6.60;;;;;;;-145.23;100.00;58621.06;5017909;28;20307;-51
2022/10/13 00:11:50;;;;;;;7.37;5.57;;;;;;;-145.23;100.00;58621.06;5007187;28;20228;-51
2022/10/13 00:14:17;;;;;;;7.87;5.07;;;;;;;-145.23;100.00;58621.06;5006790;28;20245;-51
2022/10/13 00:16:43;;;;;;;8.57;4.97;;;;;;;-145.23;100.00;58621.06;4999224;28;20604;-52
2022/10/13 00:19:10;;;;;;;7.80;4.57;;;;;;;-145.23;100.00;58621.06;4998899;28;20749;-52
2022/10/13 00:21:37;;;;;;;8.83;4.87;;;;;;;-145.23;100.00;58621.06;5012343;28;20233;-52
2022/10/13 00:24:04;;;;;;;7.07;4.77;;;;;;;-145.23;100.00;58621.06;5017436;28;20237;-52
2022/10/13 00:26:31;;;;;;;10.03;5.07;;;;;;;-145.23;100.00;58621.06;5020797;28;20236;-52
2022/10/13 00:28:57;;;;;;;7.43;4.33;;;;;;;-145.23;100.00;58621.06;5012172;28;20291;-51
2022/10/13 00:31:26;;;;;;;9.87;5.23;;;;;;;-145.23;100.00;58621.06;5023740;28;20240;-52
2022/10/13 00:33:52;;;;;;;8.07;5.47;;;;;;;-145.23;100.00;58621.06;5025984;28;20253;-51
2022/10/13 00:36:19;;;;;;;6.47;5.03;;;;;;;-145.23;100.00;58621.06;5026877;28;20236;-52
2022/10/13 00:38:47;;;;;;;9.80;5.00;;;;;;;-145.23;100.00;58621.06;5026323;28;20231;-52
2022/10/13 00:41:13;;;;;;;5.90;4.73;;;;;;;-145.23;100.00;58621.06;5029459;28;20759;-53
2022/10/13 00:43:53;;;;;;;11.23;5.97;;;;;;;-145.23;100.00;58621.06;5031789;28;20243;-61
2022/10/13 00:46:20;;;;;;;6.87;5.20;;;;;;;-145.23;100.00;58621.06;5035787;28;20236;-51
2022/10/13 00:48:47;;;;;;;8.43;4.93;;;;;;;-145.23;100.00;58621.06;5042763;28;20231;-54
2022/10/13 00:51:15;;;;;;;8.33;5.00;;;;;;;-145.23;100.00;58621.06;5037696;28;20260;-52
2022/10/13 00:53:43;;;;;;;10.77;5.97;;;;;;;-145.23;100.00;58621.06;5046867;28;20233;-51
2022/10/13 00:56:11;;;;;;;7.87;4.57;;;;;;;-145.23;100.00;58621.06;5041565;28;20240;-53
2022/10/13 00:58:39;;;;;;;11.70;6.40;;;;;;;-145.23;100.00;58621.06;5042908;28;20235;-55
2022/10/13 01:01:06;;;;;;;7.83;5.37;;;;;;;-145.23;100.00;58621.06;5032096;28;20233;-53
2022/10/13 01:03:33;;;;;;;8.33;4.70;;;;;;;-145.23;100.00;58621.06;5028685;28;20232;-53
2022/10/13 01:06:01;;;;;;;7.30;4.90;;;;;;;-145.23;100.00;58621.06;5029042;28;20617;-53
2022/10/13 01:08:28;;;;;;;9.87;5.50;;;;;;;-145.23;100.00;58621.06;5027362;28;20233;-54
2022/10/13 01:11:01;;;;;;;9.00;5.30;;;;;;;-145.23;100.00;58621.06;5039311;28;20232;-51
2022/10/13 01:13:34;;;;;;;8.77;5.33;;;;;;;-145.23;100.00;58621.06;5044761;28;20237;-54
2022/10/13 01:16:07;;;;;;;7.43;5.60;;;;;;;-145.23;100.00;58621.06;5044604;28;20314;-51
2022/10/13 01:18:37;;;;;;;8.30;5.53;;;;;;;-145.23;100.00;58621.06;5026617;28;20220;-52
2022/10/13 01:21:15;;;;;;;10.43;5.10;;;;;;;-145.23;100.00;58621.06;5032083;28;20247;-59
2022/10/13 01:24:21;;;;;;;7.00;5.17;;;;;;;-145.23;100.00;58621.06;5024871;28;20243;-52
2022/10/13 01:27:19;;;;;;;8.80;5.07;;;;;;;-145.23;100.00;58621.06;5012708;28;20798;-52
2022/10/13 01:30:04;;;;;;;11.27;5.60;;;;;;;-145.23;100.00;58621.06;5010186;28;20230;-51
2022/10/13 01:32:34;;;;;;;10.43;5.43;;;;;;;-145.23;100.00;58621.06;5020897;28;20718;-52
2022/10/13 01:35:06;;;;;;;10.37;6.27;;;;;;;-145.23;100.00;58621.06;5027458;28;20250;-51
2022/10/13 01:37:40;;;;;;;6.63;4.83;;;;;;;-145.23;100.00;58621.06;5020732;28;20242;-51
2022/10/13 01:40:13;;;;;;;7.77;4.60;;;;;;;-145.23;100.00;58621.06;5016129;28;20237;-51
2022/10/13 01:42:43;;;;;;;8.57;5.30;;;;;;;-145.23;100.00;58621.06;5013900;28;20241;-52
2022/10/13 01:45:12;;;;;;;13.03;5.70;;;;;;;-145.23;100.00;58621.06;5021284;28;20233;-52
2022/10/13 01:47:38;;;;;;;9.00;5.07;;;;;;;-145.23;100.00;58621.06;5023911;28;20263;-52
2022/10/13 01:50:07;;;;;;;7.17;4.60;;;;;;;-145.23;100.00;58621.06;5026170;28;20242;-53
2022/10/13 01:52:36;;;;;;;7.03;4.50;;;;;;;-145.23;100.00;58621.06;5014823;28;20259;-52
2022/10/13 01:55:06;;;;;;;7.43;4.93;;;;;;;-145.23;100.00;58621.06;5019433;28;20287;-51
2022/10/13 01:57:35;;;;;;;8.93;5.60;;;;;;;-145.23;100.00;58621.06;5010826;28;20237;-53
2022/10/13 02:00:05;;;;;;;6.33;5.37;;;;;;;-145.23;100.00;58621.06;5011744;28;20225;-52
2022/10/13 02:02:37;;;;;;;8.40;4.80;;;;;;;-145.23;100.00;58621.06;5018001;28;20749;-52
2022/10/13 02:05:11;;;;;;;8.97;5.03;;;;;;;-145.23;100.00;58621.06;5013474;28;20236;-51
2022/10/13 02:07:45;;;;;;;7.67;5.70;;;;;;;-145.23;100.00;58621.06;5026107;28;20237;-51
2022/10/13 02:10:15;;;;;;;11.30;5.20;;;;;;;-145.23;100.00;58621.06;5024489;28;20242;-52
2022/10/13 02:12:46;;;;;;;8.77;5.13;;;;;;;-145.23;100.00;58621.06;5042679;28;20286;-52
2022/10/13 02:15:18;;;;;;;6.80;4.67;;;;;;;-145.23;100.00;58621.06;5015254;28;20241;-52
2022/10/13 02:17:46;;;;;;;6.53;4.47;;;;;;;-145.23;100.00;58621.06;5018895;28;20234;-52
2022/10/13 02:20:15;;;;;;;5.73;4.40;;;;;;;-145.23;100.00;58621.06;5020029;28;20241;-52
2022/10/13 02:22:45;;;;;;;5.83;4.97;;;;;;;-145.23;100.00;58621.06;5007146;28;20250;-51
2022/10/13 02:25:12;;;;;;;7.60;4.53;;;;;;;-145.23;100.00;58621.06;4995991;28;20251;-51
2022/10/13 02:27:39;;;;;;;9.27;5.40;;;;;;;-145.23;100.00;58621.06;5012429;28;20287;-52
2022/10/13 02:30:07;;;;;;;6.53;4.67;;;;;;;-145.23;100.00;58621.06;4992752;28;20226;-51
2022/10/13 02:32:34;;;;;;;5.70;4.70;;;;;;;-145.23;100.00;58621.06;4990855;28;20230;-52
2022/10/13 02:35:02;;;;;;;8.33;5.47;;;;;;;-145.23;100.00;58621.06;5018536;28;20734;-52
2022/10/13 02:37:30;;;;;;;8.00;5.30;;;;;;;-145.23;100.00;58621.06;5022427;28;20307;-52
2022/10/13 02:39:56;;;;;;;8.17;5.77;;;;;;;-145.23;100.00;58621.06;5012589;28;20237;-52
2022/10/13 02:42:23;;;;;;;10.60;6.87;;;;;;;-145.23;100.00;58621.06;5008496;28;20244;-53
2022/10/13 02:44:50;;;;;;;8.60;5.27;;;;;;;-145.23;100.00;58621.06;5000733;28;20327;-53
2022/10/13 02:47:18;;;;;;;9.50;5.30;;;;;;;-145.23;100.00;58621.06;5027508;28;20240;-52
2022/10/13 02:49:44;;;;;;;12.30;6.13;;;;;;;-145.23;100.00;58621.06;5015535;28;20224;-56
2022/10/13 02:52:13;;;;;;;8.97;5.37;;;;;;;-145.23;100.00;58621.06;5030490;28;20759;-52
2022/10/13 02:54:40;;;;;;;8.77;6.07;;;;;;;-145.23;100.00;58621.06;5025563;28;20237;-52
2022/10/13 02:57:07;;;;;;;9.47;5.47;;;;;;;-145.23;100.00;58621.06;5027248;28;20248;-51
2022/10/13 02:59:34;;;;;;;11.63;6.20;;;;;;;-145.23;100.00;58621.06;5028846;28;20235;-52
2022/10/13 03:02:01;;;;;;;7.67;5.60;;;;;;;-145.23;100.00;58621.06;5010039;28;20322;-51
2022/10/13 03:04:28;;;;;;;13.93;6.37;;;;;;;-145.23;100.00;58621.06;5028631;28;20244;-52
2022/10/13 03:06:56;;;;;;;7.20;5.73;;;;;;;-145.23;100.00;58621.06;5019516;28;20258;-51
2022/10/13 03:09:24;;;;;;;14.10;6.23;;;;;;;-145.23;100.00;58621.06;5025112;28;20240;-52
2022/10/13 03:11:51;;;;;;;8.57;5.47;;;;;;;-145.23;100.00;58621.06;5027572;28;20315;-52
2022/10/13 03:14:18;;;;;;;15.57;5.83;;;;;;;-145.23;100.00;58621.06;5029414;28;20232;-52
2022/10/13 03:16:45;;;;;;;12.17;6.30;;;;;;;-145.23;100.00;58621.06;5023725;28;20386;-52
2022/10/13 03:19:12;;;;;;;8.90;6.03;;;;;;;-145.23;100.00;58621.06;5001043;28;20225;-52
2022/10/13 03:21:39;;;;;;;9.17;5.67;;;;;;;-145.23;100.00;58621.06;5008526;28;20238;-52
2022/10/13 03:24:09;;;;;;;7.50;5.30;;;;;;;-145.23;100.00;58621.06;5006390;28;20627;-53
2022/10/13 03:26:37;;;;;;;6.47;5.27;;;;;;;-145.23;100.00;58621.06;5008949;28;20240;-52
2022/10/13 03:29:04;;;;;;;8.83;5.80;;;;;;;-145.23;100.00;58621.06;5011008;28;20228;-52
2022/10/13 03:31:31;;;;;;;8.17;5.37;;;;;;;-145.23;100.00;58621.06;5012700;28;20233;-52
2022/10/13 03:33:58;;;;;;;7.97;4.93;;;;;;;-145.23;100.00;58621.06;5028086;28;20240;-52
2022/10/13 03:36:25;;;;;;;11.33;6.00;;;;;;;-145.23;100.00;58621.06;5024369;28;20232;-53
2022/10/13 03:38:52;;;;;;;9.07;5.90;;;;;;;-145.23;100.00;58621.06;5032810;28;20243;-53
2022/10/13 03:41:19;;;;;;;9.90;5.47;;;;;;;-145.23;100.00;58621.06;5012740;28;20260;-53
2022/10/13 03:43:48;;;;;;;8.60;5.20;;;;;;;-145.23;100.00;58621.06;5030492;28;20251;-52
2022/10/13 03:46:16;;;;;;;6.37;4.90;;;;;;;-145.23;100.00;58621.06;5020593;28;20259;-56
2022/10/13 03:48:43;;;;;;;11.60;5.60;;;;;;;-145.23;100.00;58621.06;5026913;28;20271;-52
2022/10/13 03:51:13;;;;;;;10.00;6.10;;;;;;;-145.23;100.00;58621.06;5019549;28;20237;-52
2022/10/13 03:53:40;;;;;;;9.00;6.50;;;;;;;-145.23;100.00;58621.06;5025240;28;20264;-52
2022/10/13 03:56:07;;;;;;;11.13;6.80;;;;;;;-145.23;100.00;58621.06;5034262;28;20244;-53
2022/10/13 03:58:34;;;;;;;10.23;5.53;;;;;;;-145.23;100.00;58621.06;5029544;28;20298;-53
2022/10/13 04:01:05;;;;;;;9.73;6.20;;;;;;;-145.23;100.00;58621.06;5027482;28;20295;-52
2022/10/13 04:03:32;;;;;;;7.53;5.50;;;;;;;-145.23;100.00;58621.06;5021604;28;20232;-52
2022/10/13 04:06:00;;;;;;;10.20;5.50;;;;;;;-145.23;100.00;58621.06;5027867;28;20313;-52
2022/10/13 04:08:27;;;;;;;9.87;5.47;;;;;;;-145.23;100.00;58621.06;5031151;28;20312;-52
2022/10/13 04:10:58;;;;;;;10.50;5.23;;;;;;;-145.23;100.00;58621.06;5004821;28;20252;-52
2022/10/13 04:13:25;;;;;;;8.27;6.23;;;;;;;-145.23;100.00;58621.06;5005915;28;21005;-55
2022/10/13 04:15:52;;;;;;;10.13;6.00;;;;;;;-145.23;100.00;58621.06;5022848;28;20252;-52
2022/10/13 04:18:20;;;;;;;8.33;6.00;;;;;;;-145.23;100.00;58621.06;5020766;28;20709;-51
2022/10/13 04:20:47;;;;;;;8.70;6.63;;;;;;;-145.23;100.00;58621.06;5013583;28;20255;-52
2022/10/13 04:23:13;;;;;;;10.67;5.67;;;;;;;-145.23;100.00;58621.06;5007949;28;20320;-51
2022/10/13 04:25:40;;;;;;;11.63;6.43;;;;;;;-145.23;100.00;58621.06;5017137;28;20403;-51
2022/10/13 04:28:07;;;;;;;9.93;6.13;;;;;;;-145.23;100.00;58621.06;5009421;28;20304;-50
2022/10/13 04:30:34;;;;;;;12.03;5.90;;;;;;;-145.23;100.00;58621.06;5001594;28;20229;-52
2022/10/13 04:33:01;;;;;;;6.70;5.83;;;;;;;-145.23;100.00;58621.06;5022717;28;20236;-51
2022/10/13 04:35:29;;;;;;;10.07;5.37;;;;;;;-145.23;100.00;58621.06;5040025;28;20239;-50
2022/10/13 04:37:57;;;;;;;12.20;6.33;;;;;;;-145.23;100.00;58621.06;5036590;28;20252;-51
2022/10/13 04:40:24;;;;;;;7.73;5.47;;;;;;;-145.23;100.00;58621.06;5024042;28;20236;-51
2022/10/13 04:42:51;;;;;;;11.30;6.50;;;;;;;-145.23;100.00;58621.06;5030782;28;20292;-53
2022/10/13 04:45:18;;;;;;;11.53;6.67;;;;;;;-145.23;100.00;58621.06;5036981;28;20243;-51
2022/10/13 04:47:44;;;;;;;11.30;6.10;;;;;;;-145.23;100.00;58621.06;5034424;28;20238;-51
2022/10/13 04:50:11;;;;;;;7.37;5.30;;;;;;;-145.23;100.00;58621.06;5037393;28;20347;-51
2022/10/13 04:52:39;;;;;;;7.93;6.63;;;;;;;-145.23;100.00;58621.06;5039338;28;20232;-50
2022/10/13 04:55:07;;;;;;;10.83;6.63;;;;;;;-145.23;100.00;58621.06;5018080;28;20241;-50
2022/10/13 04:57:34;;;;;;;11.57;6.43;;;;;;;-145.23;100.00;58621.06;5020124;28;20259;-52
2022/10/13 05:00:02;;;;;;;11.20;6.00;;;;;;;-145.23;100.00;58621.06;5022217;28;20253;-53
2022/10/13 05:02:28;;;;;;;11.40;6.57;;;;;;;-145.23;100.00;58621.06;5034555;28;20240;-52
2022/10/13 05:04:55;;;;;;;12.20;5.47;;;;;;;-145.23;100.00;58621.06;5033425;28;20242;-52
2022/10/13 05:07:22;;;;;;;12.47;6.57;;;;;;;-145.23;100.00;58621.06;5033149;28;20315;-51
2022/10/13 05:09:50;;;;;;;10.30;7.63;;;;;;;-145.23;100.00;58621.06;5020265;28;20323;-51
2022/10/13 05:12:17;;;;;;;6.93;6.03;;;;;;;-145.23;100.00;58621.06;5018063;28;20697;-53
2022/10/13 05:14:44;;;;;;;11.47;6.87;;;;;;;-145.23;100.00;58621.06;5019278;28;20236;-51
2022/10/13 05:17:10;;;;;;;11.00;5.57;;;;;;;-145.23;100.00;58621.06;5009969;28;20225;-52
2022/10/13 05:19:37;;;;;;;10.57;6.67;;;;;;;-145.23;100.00;58621.06;5013879;28;20299;-50
2022/10/13 05:22:04;;;;;;;12.23;6.53;;;;;;;-145.23;100.00;58621.06;5008364;28;20260;-53
2022/10/13 05:24:35;;;;;;;8.37;6.03;;;;;;;-145.23;100.00;58621.06;5002362;28;20312;-51
2022/10/13 05:27:05;;;;;;;12.37;7.03;;;;;;;-145.23;100.00;58621.06;5015948;28;20228;-52
2022/10/13 05:29:32;;;;;;;12.43;7.40;;;;;;;-145.23;100.00;58621.06;5034473;28;20811;-52
2022/10/13 05:31:58;;;;;;;12.00;6.90;;;;;;;-145.23;100.00;58621.06;5033124;28;20228;-51
2022/10/13 05:34:25;;;;;;;8.37;6.43;;;;;;;-145.23;100.00;58621.06;5024545;28;20237;-51
2022/10/13 05:36:52;;;;;;;13.10;7.33;;;;;;;-145.23;100.00;58621.06;5038060;28;20238;-51
2022/10/13 05:39:18;;;;;;;10.20;6.97;;;;;;;-145.23;100.00;58621.06;5030582;28;20739;-51
2022/10/13 05:41:45;;;;;;;11.07;6.50;;;;;;;-145.23;100.00;58621.06;5035942;28;20357;-52
2022/10/13 05:44:15;;;;;;;14.83;7.83;;;;;;;-145.23;100.00;58621.06;5030131;28;20342;-51
2022/10/13 05:46:42;;;;;;;12.20;7.70;;;;;;;-145.23;100.00;58621.06;5034551;28;20232;-51
2022/10/13 05:49:09;;;;;;;11.53;6.97;;;;;;;-145.23;100.00;58621.06;5028957;28;20262;-50
2022/10/13 05:51:38;;;;;;;8.67;6.80;;;;;;;-145.23;100.00;58621.06;5041246;28;20236;-52
2022/10/13 05:54:08;;;;;;;12.47;7.23;;;;;;;-145.23;100.00;58621.06;5029907;28;20249;-52
2022/10/13 05:56:39;;;;;;;13.37;7.20;;;;;;;-145.23;100.00;58621.06;5025617;28;20225;-52
2022/10/13 05:59:08;;;;;;;14.17;8.83;;;;;;;-145.23;100.00;58621.06;5026132;28;20245;-51
2022/10/13 06:01:38;;;;;;;14.13;7.33;;;;;;;-145.23;100.00;58621.06;5036345;28;20236;-53
2022/10/13 06:04:08;;;;;;;7.90;6.30;;;;;;;-145.23;100.00;58621.06;5035000;28;20316;-51
2022/10/13 06:06:35;;;;;;;13.30;8.27;;;;;;;-145.23;100.00;58621.06;5022643;28;20248;-52
2022/10/13 06:09:02;;;;;;;10.40;7.63;;;;;;;-145.23;100.00;58621.06;5010889;28;20321;-51
2022/10/13 06:11:28;;;;;;;9.97;6.93;;;;;;;-145.23;100.00;58621.06;5013893;28;20857;-51
2022/10/13 06:13:55;;;;;;;13.03;7.67;;;;;;;-145.23;100.00;58621.06;5021045;28;20236;-50
2022/10/13 06:16:22;;;;;;;9.43;6.83;;;;;;;-145.23;100.00;58621.06;5016226;28;20789;-50
2022/10/13 06:18:50;;;;;;;7.97;6.33;;;;;;;-145.23;100.00;58621.06;5010563;28;20232;-53
2022/10/13 06:21:17;;;;;;;13.93;8.27;;;;;;;-145.23;100.00;58621.06;5011733;28;20260;-51
2022/10/13 06:23:44;;;;;;;11.10;7.53;;;;;;;-145.23;100.00;58621.06;5006058;28;20233;-51
2022/10/13 06:26:10;;;;;;;9.90;7.77;;;;;;;-145.23;100.00;58621.06;5023749;28;20263;-51
2022/10/13 06:28:37;;;;;;;13.93;8.70;;;;;;;-145.23;100.00;58621.06;5040432;28;20946;-56
2022/10/13 06:31:05;;;;;;;14.73;8.83;;;;;;;-145.23;100.00;58621.06;5028886;28;20306;-51
2022/10/13 06:33:32;;;;;;;12.63;8.80;;;;;;;-145.23;100.00;58621.06;5036179;28;20241;-52
2022/10/13 06:36:03;;;;;;;9.93;7.83;;;;;;;-145.23;100.00;58621.06;5033238;28;20236;-52
2022/10/13 06:38:30;;;;;;;9.40;8.47;;;;;;;-145.23;100.00;58621.06;5026176;28;20240;-51
2022/10/13 06:41:00;;;;;;;14.77;9.23;;;;;;;-145.23;100.00;58621.06;5033844;28;20233;-51
2022/10/13 06:43:26;;;;;;;13.20;9.27;;;;;;;-145.23;100.00;58621.06;5024405;28;20949;-56
2022/10/13 06:45:53;;;;;;;11.17;9.63;;;;;;;-145.23;100.00;58621.06;5032715;28;20224;-52
2022/10/13 06:48:20;;;;;;;14.63;8.20;;;;;;;-145.23;100.00;58621.06;5028196;28;20385;-52
2022/10/13 06:50:47;;;;;;;13.17;8.80;;;;;;;-145.23;100.00;58621.06;5033827;28;20315;-51
2022/10/13 06:53:17;;;;;;;15.67;9.33;;;;;;;-145.23;100.00;58621.06;5022139;28;20237;-53
2022/10/13 06:55:44;;;;;;;15.37;9.70;;;;;;;-145.23;100.00;58621.06;5015052;28;20232;-52
2022/10/13 06:58:11;;;;;;;12.10;8.70;;;;;;;-145.23;100.00;58621.06;5007428;28;20245;-51
2022/10/13 07:00:38;;;;;;;11.13;9.17;;;;;;;-145.23;100.00;58621.06;5004185;28;20363;-51
2022/10/13 07:03:04;;;;;;;12.30;9.40;;;;;;;-145.23;100.00;58621.06;5018163;28;20252;-51
2022/10/13 07:05:31;;;;;;;14.40;10.20;;;;;;;-145.23;100.00;58621.06;5020860;28;20240;-53
2022/10/13 07:07:58;;;;;;;12.83;9.43;;;;;;;-145.23;100.00;58621.06;5014409;28;20232;-52
2022/10/13 07:10:26;;;;;;;10.50;9.37;;;;;;;-145.23;100.00;58621.06;5003714;28;20241;-51
2022/10/13 07:12:53;;;;;;;12.27;10.13;;;;;;;-145.23;100.00;58621.06;4997865;28;20229;-55
2022/10/13 07:15:23;;;;;;;11.00;8.80;;;;;;;-145.23;100.00;58621.06;5024804;28;20266;-53
2022/10/13 07:17:52;;;;;;;15.07;9.10;;;;;;;-145.23;100.00;58621.06;5021547;28;20225;-50
2022/10/13 07:20:19;;;;;;;12.30;10.10;;;;;;;-145.23;100.00;58621.06;5022936;28;20247;-53
2022/10/13 07:22:46;;;;;;;12.00;9.90;;;;;;;-145.23;100.00;58621.06;5026137;28;20220;-53
2022/10/13 07:25:13;;;;;;;10.57;9.47;;;;;;;-145.23;100.00;58621.06;5013684;28;20248;-51
2022/10/13 07:27:42;;;;;;;12.53;9.70;;;;;;;-145.23;100.00;58621.06;5022353;28;20582;-51
2022/10/13 07:30:10;;;;;;;12.93;9.77;;;;;;;-145.23;100.00;58621.06;5022704;28;20244;-51
2022/10/13 07:32:41;;;;;;;10.73;9.33;;;;;;;-145.23;100.00;58621.06;5022188;28;20225;-53
2022/10/13 07:35:09;;;;;;;13.73;9.33;;;;;;;-145.23;100.00;58621.06;5010298;28;20730;-53
2022/10/13 07:37:36;;;;;;;12.27;10.23;;;;;;;-145.23;100.00;58621.06;5028474;28;20294;-55
2022/10/13 07:40:03;;;;;;;15.70;10.03;;;;;;;-145.23;100.00;58621.06;5020990;28;20326;-52
2022/10/13 07:42:30;;;;;;;13.83;11.10;;;;;;;-145.23;100.00;58621.06;5014966;28;20334;-53
2022/10/13 07:44:58;;;;;;;13.87;9.87;;;;;;;-145.23;100.00;58621.06;5023988;28;20237;-52
2022/10/13 07:47:25;;;;;;;11.03;9.20;;;;;;;-145.23;100.00;58621.06;5016928;28;21251;-52
2022/10/13 07:49:53;;;;;;;15.57;11.27;;;;;;;-145.23;100.00;58621.06;5021346;28;20232;-52
2022/10/13 07:52:20;;;;;;;14.80;9.73;;;;;;;-145.23;100.00;58621.06;5022725;28;22175;-52
2022/10/13 07:54:47;;;;;;;12.93;10.07;;;;;;;-145.23;100.00;58621.06;5015249;28;20298;-51
2022/10/13 07:57:14;;;;;;;11.93;9.23;;;;;;;-145.23;100.00;58621.06;5022772;28;20346;-52
2022/10/13 07:59:40;;;;;;;14.50;10.50;;;;;;;-145.23;100.00;58621.06;5021464;28;20234;-51
2022/10/13 08:02:09;;;;;;;13.20;10.70;;;;;;;-145.23;100.00;58621.06;5028442;28;20873;-51
2022/10/13 08:04:36;;;;;;;13.43;11.40;;;;;;;-145.23;100.00;58621.06;5021861;28;20225;-51
2022/10/13 08:07:04;;;;;;;10.97;8.73;;;;;;;-145.23;100.00;58621.06;5021616;28;20234;-51
2022/10/13 08:09:31;;;;;;;14.60;10.10;;;;;;;-145.23;100.00;58621.06;5021699;28;20232;-52
2022/10/13 08:11:58;;;;;;;14.77;9.98;;;;;;;-145.23;100.00;58621.06;5024674;28;20241;-51
2022/10/13 08:14:25;;;;;;;16.83;11.07;;;;;;;-145.23;100.00;58621.06;5014361;28;20256;-51
2022/10/13 08:16:52;;;;;;;13.83;10.33;;;;;;;-145.23;100.00;58621.06;5008280;28;20325;-50
2022/10/13 08:19:20;;;;;;;14.70;11.25;;;;;;;-145.23;100.00;58621.06;5011064;28;20600;-51
2022/10/13 08:21:47;;;;;;;14.20;10.30;;;;;;;-145.23;100.00;58621.06;5014954;28;20224;-52
2022/10/13 08:24:16;;;;;;;17.67;10.68;;;;;;;-145.23;100.00;58621.06;5021632;28;20259;-57
2022/10/13 08:26:43;;;;;;;15.98;10.80;;;;;;;-145.23;100.00;58621.06;5002847;28;20237;-52
2022/10/13 08:29:11;;;;;;;12.95;11.02;;;;;;;-145.23;100.00;58621.06;4993301;28;20234;-52
2022/10/13 08:31:38;;;;;;;15.00;11.15;;;;;;;-145.23;100.00;58621.06;4997416;28;20254;-51
2022/10/13 08:34:05;;;;;;;19.35;11.68;;;;;;;-145.23;100.00;58621.06;5014196;28;20244;-51
2022/10/13 08:36:33;;;;;;;20.02;10.82;;;;;;;-145.23;100.00;58621.06;5026809;28;20579;-56
2022/10/13 08:39:00;;;;;;;12.20;10.32;;;;;;;-145.23;100.00;58621.06;5005648;28;20248;-53
2022/10/13 08:41:28;;;;;;;15.00;11.48;;;;;;;-145.23;100.00;58621.06;5004742;28;20307;-52
2022/10/13 08:43:57;;;;;;;15.77;12.07;;;;;;;-145.23;100.00;58621.06;5000682;28;20244;-52
2022/10/13 08:46:26;;;;;;;18.65;11.70;;;;;;;-145.23;100.00;58621.06;5011895;28;20241;-51
2022/10/13 08:48:54;;;;;;;20.58;11.55;;;;;;;-145.23;100.00;58621.06;5007931;28;20248;-53
2022/10/13 08:51:21;;;;;;;16.00;10.70;;;;;;;-145.23;100.00;58621.06;5015883;28;20249;-53
2022/10/13 08:53:49;;;;;;;13.77;11.13;;;;;;;-145.23;100.00;58621.06;5008101;28;20704;-55
2022/10/13 08:56:19;;;;;;;13.75;11.20;;;;;;;-145.23;100.00;58621.06;5007817;28;20313;-50
2022/10/13 08:58:46;;;;;;;15.43;12.40;;;;;;;-145.23;100.00;58621.06;5003699;28;20244;-51
2022/10/13 09:01:14;;;;;;;16.23;10.88;;;;;;;-145.23;100.00;58621.06;5003716;28;20233;-52
2022/10/13 09:03:50;;;;;;;15.65;10.45;;;;;;;-145.23;100.00;58621.06;4995582;28;20277;-52
2022/10/13 09:06:26;;;;;;;11.60;10.20;;;;;;;-145.23;100.00;58621.06;4999493;28;20237;-51
2022/10/13 09:08:56;;;;;;;16.27;11.85;;;;;;;-145.23;100.00;58621.06;5011468;28;20219;-53
2022/10/13 09:11:25;;;;;;;11.45;10.20;;;;;;;-145.23;100.00;58621.06;5017197;28;20229;-53
2022/10/13 09:13:54;;;;;;;11.73;9.20;;;;;;;-145.23;100.00;58621.06;5000778;28;20236;-53
2022/10/13 09:16:29;;;;;;;12.45;11.07;;;;;;;-145.23;100.00;58621.06;5017585;28;20875;-53
2022/10/13 09:19:13;;;;;;;11.60;10.05;;;;;;;-145.23;100.00;58621.06;5033922;28;20239;-51
2022/10/13 09:21:39;;;;;;;12.15;10.82;;;;;;;-145.23;100.00;58621.06;5035911;28;20884;-51
2022/10/13 09:24:12;;;;;;;11.15;9.65;;;;;;;-145.23;100.00;58621.06;5026294;28;20249;-52
2022/10/13 09:26:39;;;;;;;16.33;11.90;;;;;;;-145.23;100.00;58621.06;5034489;28;20598;-52
2022/10/13 09:29:08;;;;;;;12.43;9.48;;;;;;;-145.23;100.00;58621.06;5023836;28;20248;-51
2022/10/13 09:31:36;;;;;;;13.30;10.32;;;;;;;-145.23;100.00;58621.06;5032903;28;20225;-53
2022/10/13 09:34:12;;;;;;;17.38;11.48;;;;;;;-145.23;100.00;58621.06;5034573;28;20238;-51
2022/10/13 09:36:38;;;;;;;12.07;10.82;;;;;;;-145.23;100.00;58621.06;5042940;28;20224;-51
2022/10/13 09:39:08;;;;;;;16.45;11.95;;;;;;;-145.23;100.00;58621.06;5029812;28;20260;-50
2022/10/13 09:41:35;;;;;;;19.50;12.32;;;;;;;-145.23;100.00;58621.06;5046456;28;20237;-51
2022/10/13 09:44:09;;;;;;;19.33;11.40;;;;;;;-145.23;100.00;58621.06;5031524;28;20587;-49
2022/10/13 09:46:38;;;;;;;21.67;12.23;;;;;;;-145.23;100.00;58621.06;5037668;28;20247;-52
2022/10/13 09:49:07;;;;;;;15.90;12.23;;;;;;;-145.23;100.00;58621.06;5020568;28;20257;-51
2022/10/13 09:51:37;;;;;;;13.77;10.85;;;;;;;-145.23;100.00;58621.06;5016509;28;20253;-53
2022/10/13 09:54:04;;;;;;;14.80;11.77;;;;;;;-145.23;100.00;58621.06;5018563;28;20228;-52
2022/10/13 09:56:36;;;;;;;18.52;12.68;;;;;;;-145.23;100.00;58621.06;5005286;28;20279;-52
2022/10/13 09:59:10;;;;;;;17.40;12.77;;;;;;;-145.23;100.00;58621.06;5022009;28;20229;-52
2022/10/13 10:01:39;;;;;;;21.65;12.13;;;;;;;-145.23;100.00;58621.06;5016047;28;20225;-52
2022/10/13 10:04:09;;;;;;;24.23;12.95;;;;;;;-145.23;100.00;58621.06;5031525;28;20245;-53
2022/10/13 10:06:36;;;;;;;19.40;12.57;;;;;;;-145.23;100.00;58621.06;5028870;28;20262;-52
2022/10/13 10:09:09;;;;;;;21.98;13.13;;;;;;;-145.23;100.00;58621.06;5021987;28;20264;-52
2022/10/13 10:11:40;;;;;;;14.95;12.57;;;;;;;-145.23;100.00;58621.06;5035673;28;20256;-54
2022/10/13 10:14:14;;;;;;;14.63;12.60;;;;;;;-145.23;100.00;58621.06;5025917;28;20241;-53
2022/10/13 10:16:43;;;;;;;15.40;12.35;;;;;;;-145.23;100.00;58621.06;5019108;28;20233;-52
2022/10/13 10:19:13;;;;;;;17.27;11.00;;;;;;;-145.23;100.00;58621.06;5014511;28;20236;-52
2022/10/13 10:21:44;;;;;;;13.77;10.93;;;;;;;-145.23;100.00;58621.06;5034042;28;20237;-51
2022/10/13 10:24:24;;;;;;;13.98;11.85;;;;;;;-145.23;100.00;58621.06;5035189;28;20239;-52
2022/10/13 10:26:55;;;;;;;17.70;13.43;;;;;;;-145.23;100.00;58621.06;5025329;28;20752;-51
2022/10/13 10:29:32;;;;;;;20.75;13.38;;;;;;;-145.23;100.00;58621.06;5037517;28;20241;-51
2022/10/13 10:32:12;;;;;;;20.33;12.57;;;;;;;-145.23;100.00;58621.06;5029085;28;20240;-53
2022/10/13 10:34:42;;;;;;;16.33;13.07;;;;;;;-145.23;100.00;58621.06;5044170;28;20239;-52
2022/10/13 10:37:19;;;;;;;16.45;10.55;;;;;;;-145.23;100.00;58621.06;5042991;28;20259;-51
2022/10/13 10:39:49;;;;;;;17.00;12.75;;;;;;;-145.23;100.00;58621.06;5045070;28;20243;-51
2022/10/13 10:42:38;;;;;;;20.23;12.68;;;;;;;-145.23;100.00;58621.06;5039809;28;20350;-51
2022/10/13 10:45:12;;;;;;;20.35;13.82;;;;;;;-145.23;100.00;58621.06;5003033;28;20288;-51
2022/10/13 10:47:42;;;;;;;18.17;13.35;;;;;;;-145.23;100.00;58621.06;5032905;28;20248;-52
2022/10/13 10:50:14;;;;;;;18.30;13.07;;;;;;;-145.23;100.00;58621.06;5026160;28;20239;-51
2022/10/13 10:52:48;;;;;;;17.58;11.75;;;;;;;-145.23;100.00;58621.06;5021120;28;20236;-52
2022/10/13 10:55:19;;;;;;;14.50;11.30;;;;;;;-145.23;100.00;58621.06;5030007;28;20239;-51
2022/10/13 10:57:52;;;;;;;14.30;11.13;;;;;;;-145.23;100.00;58621.06;5025221;28;20248;-52
2022/10/13 11:00:21;;;;;;;16.27;12.07;;;;;;;-145.23;100.00;58621.06;5024527;28;20252;-52
2022/10/13 11:02:53;;;;;;;15.57;11.73;;;;;;;-145.23;100.00;58621.06;5036504;28;20242;-56
2022/10/13 11:05:20;;;;;;;15.82;12.15;;;;;;;-145.23;100.00;58621.06;5033207;28;20231;-51
2022/10/13 11:07:59;;;;;;;13.40;11.27;;;;;;;-145.23;100.00;58621.06;5041162;28;21844;-51
2022/10/13 11:10:27;;;;;;;15.45;10.30;;;;;;;-145.23;100.00;58621.06;5028485;28;20248;-51